Latest Coastal Weather Observations for Orbost

IDV60701

Issued at 1:11 pm EST Monday 6 July 2015 (issued every 10 minutes, with the page automatically refreshed every 10 minutes)

About coastal observations | Map of coastal stations | Coastal observations for VIC | Marine services | Other Formats
Station Details ID: 084145 Name: ORBOST Lat: -37.69 Lon: 148.47 Height: 62.65 m
Data from the previous 72 hours. | See also: Recent months at Orbost
Date/Time
EST
Temp

°C
Wind Pressure Rain
since 9am
mm
Weather Cloud Vis
km
Sea
Height
m
Swell
Dir
 
Speed
knots
Gust
knots
hPa Trend Height
m
Period
s
Dir
06/01:00pm 10.8 NNW 3 6 1014.6 - 0.0 - - - - - - -
06/12:30pm 10.8 NW 3 5 1015.0 - 0.0 - - - - - - -
06/12:00pm 11.2 NNW 6 8 1015.1 - 0.0 - - - - - - -
06/11:30am 10.9 NNW 6 9 1015.4 - 0.0 - - - - - - -
06/11:00am 10.5 NW 5 9 1015.6 - 0.0 - - - - - - -
06/10:30am 10.5 NNW 7 11 1015.6 - 0.0 - - - - - - -
06/10:00am 10.3 NNW 9 13 1015.5 - 0.0 - - - - - - -
06/09:30am 10.2 NNW 7 11 1015.6 - 0.0 - - - - - - -
06/09:00am 9.8 NNW 9 13 1015.4 - 0.0 - - - - - - -
06/08:30am 9.6 NNW 9 14 1015.3 - 0.0 - - - - - - -
06/08:00am 9.3 NNW 8 13 1015.4 - 0.0 - - - - - - -
06/07:30am 8.9 NNW 8 11 1015.3 - 0.0 - - - - - - -
06/07:00am 8.5 NNW 8 13 1015.2 - 0.0 - - - - - - -
06/06:30am 8.1 NNW 6 12 1015.2 - 0.0 - - - - - - -
06/06:00am 7.9 NW 5 8 1015.2 - 0.0 - - - - - - -
06/05:30am 8.3 NNW 7 12 1015.1 - 0.0 - - - - - - -
06/05:00am 8.3 NNW 8 12 1015.1 - 0.0 - - - - - - -
06/04:30am 8.1 NNW 6 8 1015.2 - 0.0 - - - - - - -
06/04:00am 7.9 NNW 7 11 1015.2 - 0.0 - - - - - - -
06/03:30am 7.8 NNW 5 9 1015.5 - 0.0 - - - - - - -
06/03:00am 7.3 NNW 4 7 1015.8 - 0.0 - - - - - - -
06/02:30am 7.2 NW 3 4 1016.1 - 0.0 - - - - - - -
06/02:00am 7.4 NW 2 4 1016.2 - 0.0 - - - - - - -
06/01:30am 7.8 NW 3 5 1016.2 - 0.0 - - - - - - -
06/01:00am 7.3 NNW 5 7 1016.3 - 0.0 - - - - - - -
06/12:30am 8.3 NNW 5 7 1016.6 - 0.0 - - - - - - -
06/12:00am - NNW 6 8 1016.7 - 0.0 - - - - - - -
 
Date/Time
EST
Temp

°C
Wind Pressure Rain
since 9am
mm
Weather Cloud Vis
km
Sea
Height
m
Swell
Dir
 
Speed
knots
Gust
knots
hPa Trend Height
m
Period
s
Dir
05/11:30pm - NNW 6 8 1016.9 - 0.0 - - - - - - -
05/11:00pm - N 6 8 1017.1 - 0.0 - - - - - - -
05/10:30pm - NW 3 4 1017.2 - 0.0 - - - - - - -
05/10:00pm - NW 4 5 1017.3 - 0.0 - - - - - - -
05/09:30pm 7.7 WNW 2 3 1017.4 - 0.0 - - - - - - -
05/09:00pm 8.5 N 4 5 1017.5 - 0.0 - - - - - - -
05/08:30pm 8.5 NNW 4 5 1017.6 - 0.0 - - - - - - -
05/08:00pm 8.2 NE 2 4 1017.7 - 0.0 - - - - - - -
05/07:30pm 8.1 N 3 4 1017.7 - 0.0 - - - - - - -
05/07:00pm 8.8 ENE 2 3 1017.7 - 0.0 - - - - - - -
05/06:30pm 8.7 N 2 3 1017.6 - 0.0 - - - - - - -
05/06:00pm 10.2 E 1 2 1017.5 - 0.0 - - - - - - -
05/05:30pm - ESE 2 2 1017.3 - 0.0 - - - - - - -
05/05:00pm - CALM 0 0 1017.0 - 0.0 - - - - - - -
05/04:30pm 14.3 NW 1 2 1016.9 - 0.0 - - - - - - -
05/04:00pm - WNW 2 3 1017.0 - 0.0 - - - - - - -
05/03:30pm - WNW 2 3 1017.0 - 0.0 - - - - - - -
05/03:00pm - W 4 6 1017.0 - 0.0 - - - - - - -
05/02:30pm 15.5 WSW 3 5 1017.2 - 0.0 - - - - - - -
05/02:00pm - WNW 2 4 1017.2 - 0.0 - - - - - - -
05/01:30pm - NW 3 5 1017.3 - 0.0 - - - - - - -
05/01:00pm - NW 4 5 1017.6 - 0.0 - - - - - - -
05/12:30pm 15.6 WNW 4 6 1017.8 - 0.0 - - - - - - -
05/12:00pm 15.4 NW 4 7 1018.2 - 0.0 - - - - - - -
05/11:30am 14.9 NW 4 5 1018.8 - 0.0 - - - - - - -
05/11:00am 14.3 NW 5 7 1019.3 - 0.0 - - - - - - -
05/10:30am 13.6 NW 3 6 1019.7 - 0.0 - - - - - - -
05/10:00am 12.1 NW 3 5 1019.8 - 0.0 - - - - - - -
05/09:30am 10.6 NNW 3 4 1019.7 - 0.0 - - - - - - -
05/09:00am 10.6 NNW 4 5 1019.7 - 0.0 - - - - - - -
05/08:30am 9.7 CALM 0 1 1019.5 - 0.0 - - - - - - -
05/08:00am 10.2 NNW 3 5 1019.4 - 0.0 - - - - - - -
05/07:30am 9.7 NW 2 4 1019.3 - 0.0 - - - - - - -
05/07:00am 10.3 NW 4 7 1019.3 - 0.0 - - - - - - -
05/06:30am 10.3 NNW 4 7 1019.3 - 0.0 - - - - - - -
05/06:00am 10.3 NNW 3 5 1019.0 - 0.0 - - - - - - -
05/05:30am 10.5 NNW 5 8 1019.0 - 0.0 - - - - - - -
05/05:00am 10.6 NNW 6 9 1019.0 - 0.0 - - - - - - -
05/04:30am 10.4 NNW 6 9 1019.1 - 0.0 - - - - - - -
05/04:00am 10.6 NNW 6 9 1019.3 - 0.0 - - - - - - -
05/03:30am 10.4 NNW 5 8 1019.3 - 0.0 - - - - - - -
05/03:00am 10.7 NNW 6 8 1019.3 - 0.0 - - - - - - -
05/02:30am 10.8 NNW 6 8 1019.5 - 0.0 - - - - - - -
05/02:00am 10.2 NNW 4 5 1019.6 - 0.0 - - - - - - -
05/01:30am 10.7 NNW 6 8 1019.5 - 0.0 - - - - - - -
05/01:00am 10.7 NNW 4 7 1019.6 - 0.0 - - - - - - -
05/12:30am 10.6 NNW 6 8 1019.7 - 0.0 - - - - - - -
05/12:00am 10.1 N 6 9 1019.9 - 0.0 - - - - - - -
 
Date/Time
EST
Temp

°C
Wind Pressure Rain
since 9am
mm
Weather Cloud Vis
km
Sea
Height
m
Swell
Dir
 
Speed
knots
Gust
knots
hPa Trend Height
m
Period
s
Dir
04/11:30pm 9.7 NNW 6 8 1020.2 - 0.0 - - - - - - -
04/11:00pm 10.2 N 8 11 1020.2 - 0.0 - - - - - - -
04/10:30pm 10.0 N 7 10 1020.2 - 0.0 - - - - - - -
04/10:00pm 10.0 NNW 6 8 1020.2 - 0.0 - - - - - - -
04/09:30pm 9.7 NNW 5 7 1020.2 - 0.0 - - - - - - -
04/09:00pm 9.6 NNW 4 6 1020.4 - 0.0 - - - - - - -
04/08:30pm 10.1 NNW 6 9 1020.3 - 0.0 - - - - - - -
04/08:00pm 9.8 N 7 10 1020.2 - 0.0 - - - - - - -
04/07:30pm 9.7 NNW 5 7 1020.3 - 0.0 - - - - - - -
04/07:00pm 9.1 N 4 5 1020.3 - 0.0 - - - - - - -
04/06:30pm 9.8 NNW 3 5 1020.1 - 0.0 - - - - - - -
04/06:00pm 10.1 NW 1 3 1020.0 - 0.0 - - - - - - -
04/05:30pm 10.6 NNW 3 4 1019.7 - 0.0 - - - - - - -
04/05:00pm 11.0 NNW 3 4 1019.7 - 0.0 - - - - - - -
04/04:30pm 11.5 NNW 3 4 1019.6 - 0.0 - - - - - - -
04/04:00pm 12.0 NW 2 3 1019.6 - 0.0 - - - - - - -
04/03:30pm 12.5 NW 3 5 1019.4 - 0.0 - - - - - - -
04/03:00pm 12.8 NNW 4 6 1019.2 - 0.0 - - - - - - -
04/02:30pm 12.9 NW 3 5 1019.0 - 0.0 - - - - - - -
04/02:00pm 13.1 NW 4 6 1019.0 - 0.0 - - - - - - -
04/01:30pm 12.3 NNW 6 9 1019.1 - 0.0 - - - - - - -
04/01:00pm 12.1 NW 5 11 1019.3 - 0.0 - - - - - - -
04/12:30pm 11.9 NNW 6 9 1019.6 - 0.0 - - - - - - -
04/12:00pm 12.0 NNW 7 10 1020.0 - 0.0 - - - - - - -
04/11:30am 12.1 NNW 6 10 1020.4 - 0.0 - - - - - - -
04/11:00am 12.0 NNW 7 11 1020.8 - 0.0 - - - - - - -
04/10:30am 10.9 NNW 8 13 1020.9 - 0.0 - - - - - - -
04/10:00am 9.9 NNW 9 14 1021.0 - 0.0 - - - - - - -
04/09:30am 8.7 NNW 9 13 1021.0 - 0.0 - - - - - - -
04/09:00am 7.7 NNW 11 16 1021.2 - 0.0 - - - - - - -
04/08:30am 6.4 N 11 16 1021.2 - 0.0 - - - - - - -
04/08:00am 6.3 NNW 11 15 1021.5 - 0.0 - - - - - - -
04/07:30am - N 11 15 1021.5 - 0.0 - - - - - - -
04/07:00am 6.1 NNW 10 15 1021.7 - 0.0 - - - - - - -
04/06:30am 5.7 NNW 11 15 1021.7 - 0.0 - - - - - - -
04/06:00am 5.4 NNW 9 14 1021.5 - 0.0 - - - - - - -
04/05:30am 5.5 NNW 9 13 1021.4 - 0.0 - - - - - - -
04/05:00am 5.5 NNW 5 7 1021.7 - 0.0 - - - - - - -
04/04:30am 5.2 NNW 7 10 1021.7 - 0.0 - - - - - - -
04/04:00am 4.6 NNW 6 9 1021.8 - 0.0 - - - - - - -
04/03:30am 3.8 N 6 9 1022.1 - 0.0 - - - - - - -
04/03:00am 3.4 NW 3 5 1022.6 - 0.0 - - - - - - -
04/02:30am 2.7 NW 2 3 1022.7 - 0.0 - - - - - - -
04/02:00am 3.0 WNW 1 2 1022.9 - 0.0 - - - - - - -
04/01:30am 3.4 N 3 4 1022.9 - 0.0 - - - - - - -
04/01:00am 4.3 N 6 7 1023.2 - 0.0 - - - - - - -
04/12:30am 4.3 N 6 7 1023.6 - 0.0 - - - - - - -
04/12:00am 4.1 N 5 7 1024.0 - 0.0 - - - - - - -
 
Date/Time
EST
Temp

°C
Wind Pressure Rain
since 9am
mm
Weather Cloud Vis
km
Sea
Height
m
Swell
Dir
 
Speed
knots
Gust
knots
hPa Trend Height
m
Period
s
Dir
03/11:30pm 4.2 N 6 7 1024.1 - 0.0 - - - - - - -
03/11:00pm 4.8 NNW 5 7 1024.3 - 0.0 - - - - - - -
03/10:30pm 5.4 N 4 6 1024.5 - 0.0 - - - - - - -
03/10:00pm 4.8 NW 3 5 1025.0 - 0.0 - - - - - - -
03/09:30pm 4.6 WNW 2 2 1025.0 - 0.0 - - - - - - -
03/09:00pm 4.8 N 5 7 1024.8 - 0.0 - - - - - - -
03/08:30pm 5.7 N 3 4 1025.0 - 0.0 - - - - - - -
03/08:00pm 7.0 N 5 6 1025.2 - 0.0 - - - - - - -
03/07:30pm 6.8 N 5 5 1025.3 - 0.0 - - - - - - -
03/07:00pm 6.8 N 4 5 1025.3 - 0.0 - - - - - - -
03/06:30pm - N 4 5 1025.2 - 0.0 - - - - - - -
03/06:00pm - N 3 4 1025.3 - 0.0 - - - - - - -
03/05:30pm - NNW 3 4 1025.2 - 0.0 - - - - - - -
03/05:00pm - WNW 3 5 1025.2 - 0.0 - - - - - - -
03/04:30pm - NW 4 7 1025.3 - 0.0 - - - - - - -
03/04:00pm - WNW 4 7 1025.6 - 0.0 - - - - - - -
03/03:30pm - NW 5 8 1025.5 - 0.0 - - - - - - -
03/03:00pm - WNW 4 6 1025.2 - 0.0 - - - - - - -
03/02:30pm - W 6 8 1025.0 - 0.0 - - - - - - -
03/02:00pm - NW 5 7 1025.1 - 0.0 - - - - - - -
03/01:30pm 10.5 NW 4 7 1025.6 - 0.0 - - - - - - -

Other Formats:

Comma delimited format used in spreadsheet applications
http://www.bom.gov.au/fwo/IDV60701/IDV60701.95918.axf

JavaScript Object Notation format (JSON) in row-major order
http://www.bom.gov.au/fwo/IDV60701/IDV60701.95918.json